This is the latest recevied weather packets stored in our database for station/object OK2ZI. If no packets are shown the sender has not sent any weather packets the latest 10 day(s).
| Time | Temp. | Humidity | Pressure | Rain* | Wind** | Luminosity | Snow |
|---|---|---|---|---|---|---|---|
| 1778127488 | 11.67° C | 86% | 1007 hPa | 0 mm | - | - | - |
| 1778127366 | 11.67° C | 86% | 1007 hPa | 0 mm | - | - | - |
| 1778127126 | 11.67° C | 87% | 1007 hPa | 0 mm | - | - | - |
| 1778125087 | 11.11° C | 89% | 1007 hPa | 0 mm | - | - | - |
| 1778124727 | 11.11° C | 90% | 1007 hPa | 0 mm | - | - | - |
| 1778124246 | 11.67° C | 90% | 1006 hPa | 0 mm | - | - | - |
| 1778124126 | 11.67° C | 90% | 1006 hPa | 0 mm | - | - | - |
| 1778124012 | 11.67° C | 90% | 1006 hPa | 0 mm | - | - | - |
| 1778121487 | 11.11° C | 92% | 1006 hPa | 0 mm | - | - | - |
| 1778121013 | 11.11° C | 92% | 1006 hPa | 0 mm | - | - | - |
| 1778120887 | 11.11° C | 92% | 1006 hPa | 0 mm | - | - | - |
| 1778119327 | 10.56° C | 93% | 1006 hPa | 0 mm | - | - | - |
| 1778118247 | 10.56° C | 94% | 1006 hPa | 0 mm | - | - | - |
| 1778115726 | 11.11° C | 90% | 1005 hPa | 0 mm | - | - | - |
| 1778115619 | 11.67° C | 89% | 1005 hPa | 0 mm | - | - | - |
| 1778115010 | 11.67° C | 89% | 1005 hPa | 0 mm | - | - | - |
| 1778113927 | 11.67° C | 87% | 1005 hPa | 0 mm | - | - | - |
| 1778112487 | 11.67° C | 85% | 1005 hPa | 0 mm | - | - | - |
| 1778111167 | 11.67° C | 84% | 1005 hPa | 0 mm | - | - | - |
| 1778111047 | 11.67° C | 84% | 1005 hPa | 0 mm | - | - | - |
| 1778110927 | 11.67° C | 83% | 1005 hPa | 0 mm | - | - | - |
| 1778109966 | 12.78° C | 81% | 1005 hPa | 0 mm | - | - | - |
| 1778109847 | 12.78° C | 81% | 1005 hPa | 0 mm | - | - | - |
| 1778109487 | 12.78° C | 81% | 1005 hPa | 0 mm | - | - | - |
| 1778108887 | 12.22° C | 83% | 1005 hPa | 0 mm | - | - | - |
* Rain latest hour (hover to see other rain measurements)
** Current wind speed in m/s (hover to see current wind gust speed)